Airfield :
LOGIN :

Register | Disclaimer

   EN    FR    IT 

 










Legend :    VFR   Marginal VFR   IFR   Intensive IFR   Very Intensive IFR
Visi :
Ceiling :
>= 8 km
>= 3000ft
5 to 8 km
1000 to 3000 ft
1500m to 5 km
500 to 1000 ft
800 to 1500m
200 to 500 ft
< 800m
< 200 ft
Symbols :   Thunderstorms  Fog  Heavy snow  Heavy precipitations  Wind > 20 kt
SIGMETs :     Misc.  Thunderstorms  Icing  Turbulence  Mountain Waves  Volcanic Ashes







- Airport Elevation : 1300 ft
- IATA code : LIG
- Download approach charts


LFBL - Limoges

CURRENT METAR :
  • 162200Z AUTO 31006KT 9999 FEW010 SCT150 BKN190 01/00 Q1025 TEMPO 3000 BR OVC003

EXPIRED METARs :
  • 162130Z AUTO 31005KT 9999 BKN011 OVC190 01/00 Q1025 TEMPO 3000 BR OVC003
  • 162100Z AUTO 31005KT 9999 OVC013 02/00 Q1025 TEMPO 3000 BR OVC003
  • 162030Z AUTO 30005KT 9999 BKN014 BKN020 BKN043 02/00 Q1024 BECMG BKN025
  • 162000Z AUTO 30006KT 9999 FEW029 BKN038 BKN049 02/00 Q1024 NOSIG
  • 161930Z AUTO 30005KT 9999 SCT026 BKN035 BKN068 02/00 Q1023 NOSIG

TAF AMD TAF LFBL
Valid from the 16 at 20:00 until the 17 at 18:00 UTC


162035Z 1620/1718 29005KT 9999 BKN014
PROB40
TEMPO 1622/1705 3000 BR OVC003
PROB30
TEMPO 1701/1705 0800 FG VV///
BECMG 1705/1707 2000 -SN OVC003
BECMG 1707/1709 6000 NSW OVC005
TEMPO 1709/1718 1600 -RADZ OVC002
ATIS : +33 5 55 48 40 37
No reported NOTAMs for that airfield.



MET'MAP, your aeronautical weather chart ! - Copyright ORBIFLY December 2007 - Disclaimer

ORBIFLY MET'MAP TEAM :

Programming & Development : Alexandra Zaïnal
Concept & Development : Baudouin d'Aumeries
Co-Development & Prog : Marc-Olivier Méhu
Technical & hardware support : Manuel Goepfert

Contact : metmap@orbifly.com




SOURCES & CREDITS :

   NOAA